createdAt,value
2019-03-24T00:04:06.104Z,46.77
2019-03-24T00:09:00.111Z,46.10
2019-03-24T00:13:54.199Z,42.30
2019-03-24T00:18:48.252Z,39.57
2019-03-24T00:23:42.273Z,38.77
2019-03-24T00:28:36.241Z,30.80
2019-03-24T00:33:30.200Z,32.23
2019-03-24T00:38:24.192Z,37.43
2019-03-24T00:43:18.174Z,30.63
2019-03-24T00:48:12.164Z,31.23
2019-03-24T00:53:06.132Z,31.20
2019-03-24T00:58:00.330Z,29.43
2019-03-24T01:02:54.301Z,27.60
2019-03-24T01:07:48.505Z,30.33
2019-03-24T01:12:42.485Z,32.00
2019-03-24T01:17:36.852Z,28.87
2019-03-24T01:22:30.918Z,25.20
2019-03-24T01:27:24.888Z,27.40
2019-03-24T01:32:18.959Z,22.00
2019-03-24T01:37:12.924Z,29.97
2019-03-24T01:42:07.037Z,26.77
2019-03-24T01:47:01.128Z,25.23
2019-03-24T01:51:55.103Z,24.33
2019-03-24T01:56:49.072Z,28.23
2019-03-24T02:01:43.076Z,31.93
2019-03-24T02:06:38.670Z,28.73
2019-03-24T02:11:32.726Z,29.27
2019-03-24T02:16:26.677Z,36.83
2019-03-24T02:21:21.042Z,29.60
2019-03-24T02:26:15.107Z,31.77
2019-03-24T02:31:09.081Z,34.20
2019-03-24T02:36:03.155Z,29.93
2019-03-24T02:40:57.128Z,36.10
2019-03-24T02:45:51.101Z,34.50
2019-03-24T02:50:45.196Z,36.00
2019-03-24T02:55:39.144Z,36.33
2019-03-24T03:00:33.122Z,29.23
2019-03-24T03:05:27.120Z,36.20
2019-03-24T03:10:21.198Z,37.27
2019-03-24T03:15:15.274Z,34.60
2019-03-24T03:20:10.747Z,38.83
2019-03-24T03:25:08.001Z,36.70
2019-03-24T03:30:04.356Z,36.63
2019-03-24T03:34:58.513Z,38.97
2019-03-24T03:39:57.305Z,37.90
2019-03-24T03:44:48.528Z,45.40
2019-03-24T03:49:42.508Z,37.00
2019-03-24T03:54:36.461Z,44.50
2019-03-24T03:59:30.443Z,43.20
2019-03-24T04:04:24.417Z,43.53
2019-03-24T04:09:18.398Z,44.17
2019-03-24T04:14:12.475Z,43.60
2019-03-24T04:19:06.394Z,43.40
2019-03-24T04:24:00.359Z,45.57
2019-03-24T04:28:54.446Z,47.47
2019-03-24T04:33:48.433Z,48.17
2019-03-24T04:38:42.390Z,48.53
2019-03-24T04:43:36.362Z,50.10
2019-03-24T04:48:30.345Z,44.03
2019-03-24T04:53:24.310Z,44.47
2019-03-24T04:58:18.280Z,45.63
2019-03-24T05:03:12.343Z,46.40
2019-03-24T05:08:08.915Z,51.90
2019-03-24T05:13:02.911Z,49.07
2019-03-24T05:17:56.976Z,56.80
2019-03-24T05:22:50.942Z,58.03
2019-03-24T05:27:45.191Z,53.47
2019-03-24T05:32:39.162Z,53.27
2019-03-24T05:37:33.247Z,57.60
2019-03-24T05:42:27.181Z,56.90
2019-03-24T05:47:21.213Z,58.13
2019-03-24T05:52:15.172Z,55.63
2019-03-24T05:57:09.164Z,63.60
2019-03-24T06:02:03.212Z,65.97
2019-03-24T06:06:57.188Z,59.53
2019-03-24T06:11:51.151Z,57.93
2019-03-24T06:16:45.117Z,52.40
2019-03-24T06:21:39.073Z,50.97
2019-03-24T06:26:33.027Z,60.90
2019-03-24T06:31:26.997Z,51.57
2019-03-24T06:36:20.952Z,45.93
2019-03-24T06:41:14.902Z,42.77
2019-03-24T06:46:08.908Z,49.03
2019-03-24T06:51:02.983Z,36.03
2019-03-24T06:55:56.950Z,42.60
2019-03-24T07:00:51.041Z,34.93
2019-03-24T07:05:45.008Z,31.83
2019-03-24T07:10:39.173Z,33.73
2019-03-24T07:15:33.181Z,30.40
2019-03-24T07:20:27.270Z,25.70
2019-03-24T07:25:21.344Z,37.13
2019-03-24T07:30:15.600Z,28.80
2019-03-24T07:35:09.576Z,26.70
2019-03-24T07:40:05.840Z,27.93
2019-03-24T07:44:59.830Z,24.67
2019-03-24T07:49:53.947Z,26.07
2019-03-24T07:54:47.915Z,26.67
2019-03-24T07:59:41.933Z,28.63
2019-03-24T08:04:35.892Z,24.27
2019-03-24T08:09:29.876Z,25.43
2019-03-24T08:14:24.018Z,24.23
2019-03-24T08:19:17.976Z,33.00
2019-03-24T08:24:11.959Z,26.40
2019-03-24T08:29:05.920Z,28.03
2019-03-24T08:33:59.891Z,29.83
2019-03-24T08:38:53.982Z,27.98
2019-03-24T08:43:47.957Z,25.70
2019-03-24T08:48:42.007Z,25.68
2019-03-24T08:53:36.009Z,24.85
2019-03-24T08:58:29.969Z,26.23
2019-03-24T09:03:23.985Z,28.65
2019-03-24T09:08:18.080Z,28.35
2019-03-24T09:13:12.168Z,25.08
2019-03-24T09:18:06.156Z,22.98
2019-03-24T09:23:00.256Z,24.52
2019-03-24T09:27:54.345Z,24.35
2019-03-24T09:32:48.331Z,22.75
2019-03-24T09:37:42.299Z,23.02
2019-03-24T09:42:36.262Z,20.95
2019-03-24T09:47:30.277Z,24.32
2019-03-24T09:52:24.457Z,21.48
2019-03-24T09:57:18.458Z,22.05
2019-03-24T10:02:14.484Z,20.85
2019-03-24T10:07:08.460Z,19.75
2019-03-24T10:12:02.773Z,18.55
2019-03-24T10:16:56.858Z,19.98
2019-03-24T10:21:50.865Z,17.42
2019-03-24T10:26:44.983Z,18.77
2019-03-24T10:31:39.047Z,19.30
2019-03-24T10:36:33.335Z,17.65
2019-03-24T10:41:27.277Z,16.60
2019-03-24T10:46:21.394Z,16.17
2019-03-24T10:51:15.627Z,16.02
2019-03-24T10:56:09.625Z,16.93
2019-03-24T11:01:03.636Z,14.78
2019-03-24T11:05:57.741Z,14.78
2019-03-24T11:10:51.792Z,17.45
2019-03-24T11:15:45.985Z,13.98
2019-03-24T11:20:40.237Z,12.82
2019-03-24T11:25:34.317Z,15.13
2019-03-24T11:30:28.303Z,20.15
2019-03-24T11:35:22.390Z,15.55
2019-03-24T11:40:16.608Z,14.20
2019-03-24T11:45:11.221Z,14.40
2019-03-24T11:50:06.208Z,10.45
2019-03-24T11:55:00.417Z,12.18
2019-03-24T11:59:54.437Z,11.28
2019-03-24T12:04:48.438Z,13.43
2019-03-24T12:09:42.414Z,16.05
2019-03-24T12:14:36.409Z,13.48
2019-03-24T12:19:30.413Z,15.35
2019-03-24T12:24:24.388Z,16.23
2019-03-24T12:29:18.512Z,14.40
2019-03-24T12:34:12.502Z,18.82
2019-03-24T12:39:06.576Z,15.30
2019-03-24T12:44:00.568Z,14.13
2019-03-24T12:48:54.626Z,14.45
2019-03-24T12:53:48.740Z,13.13
2019-03-24T12:58:42.760Z,9.55
2019-03-24T13:03:36.771Z,14.07
2019-03-24T13:08:30.752Z,12.40
2019-03-24T13:13:24.879Z,10.93
2019-03-24T13:18:18.905Z,10.15
2019-03-24T13:23:13.123Z,6.62
2019-03-24T13:28:07.224Z,7.05
2019-03-24T13:33:01.404Z,6.72
2019-03-24T13:37:55.517Z,7.17
2019-03-24T13:42:49.498Z,5.33
2019-03-24T13:47:43.521Z,8.85
2019-03-24T13:52:37.534Z,7.80
2019-03-24T13:57:31.606Z,6.80
2019-03-24T14:02:25.705Z,8.83
2019-03-24T14:07:19.900Z,7.10
2019-03-24T14:12:13.892Z,8.05
2019-03-24T14:17:08.116Z,8.00
2019-03-24T14:22:02.344Z,7.28
2019-03-24T14:26:56.337Z,5.70
2019-03-24T14:31:50.403Z,4.37
2019-03-24T14:36:44.405Z,4.80
2019-03-24T14:41:38.600Z,6.28
2019-03-24T14:46:32.671Z,6.85
2019-03-24T14:51:26.744Z,6.90
2019-03-24T14:56:20.717Z,5.33
2019-03-24T15:01:14.690Z,5.65
2019-03-24T15:06:08.758Z,10.03
2019-03-24T15:11:02.882Z,4.70
2019-03-24T15:15:56.849Z,4.87
2019-03-24T15:20:50.968Z,8.73
2019-03-24T15:25:44.958Z,6.40
2019-03-24T15:30:39.076Z,9.95
2019-03-24T15:35:33.031Z,6.83
2019-03-24T15:40:27.135Z,6.45
2019-03-24T15:45:21.497Z,3.52
2019-03-24T15:50:15.586Z,5.60
2019-03-24T15:55:09.805Z,6.33
2019-03-24T16:00:06.077Z,5.97
2019-03-24T16:05:00.316Z,4.25
2019-03-24T16:09:54.397Z,6.12
2019-03-24T16:14:48.454Z,4.65
2019-03-24T16:19:42.440Z,6.10
2019-03-24T16:24:36.428Z,4.75
2019-03-24T16:29:30.482Z,6.67
2019-03-24T16:34:24.473Z,7.42
2019-03-24T16:39:18.435Z,7.15
2019-03-24T16:44:12.408Z,7.05
2019-03-24T16:49:06.454Z,6.10
2019-03-24T16:54:00.568Z,5.40
2019-03-24T16:58:54.671Z,8.03
2019-03-24T17:03:48.658Z,5.00
2019-03-24T17:08:42.635Z,7.28
2019-03-24T17:13:36.609Z,9.55
2019-03-24T17:18:30.819Z,6.53
2019-03-24T17:23:24.819Z,7.40
2019-03-24T17:28:18.854Z,4.58
2019-03-24T17:33:13.322Z,6.70
2019-03-24T17:38:07.446Z,7.20
2019-03-24T17:43:01.645Z,7.90
2019-03-24T17:47:57.828Z,5.87
2019-03-24T17:52:51.912Z,10.50
2019-03-24T17:57:46.054Z,10.05
2019-03-24T18:02:40.054Z,11.08
2019-03-24T18:07:34.091Z,14.27
2019-03-24T18:12:28.132Z,9.00
2019-03-24T18:17:22.159Z,8.47
2019-03-24T18:22:16.208Z,7.97
2019-03-24T18:27:10.257Z,9.77
2019-03-24T18:32:04.498Z,8.90
2019-03-24T18:36:58.494Z,13.93
2019-03-24T18:41:52.602Z,10.30
2019-03-24T18:46:46.615Z,11.73
2019-03-24T18:51:40.604Z,13.60
2019-03-24T18:56:34.698Z,9.23
2019-03-24T19:01:28.852Z,6.60
2019-03-24T19:06:23.071Z,8.80
2019-03-24T19:11:17.295Z,6.97
2019-03-24T19:16:11.311Z,9.33
2019-03-24T19:21:05.491Z,8.00
2019-03-24T19:25:59.553Z,8.17
2019-03-24T19:30:53.897Z,9.70
2019-03-24T19:35:48.073Z,15.67
2019-03-24T19:40:42.214Z,11.23
2019-03-24T19:45:36.201Z,9.90
2019-03-24T19:50:30.423Z,13.53
2019-03-24T19:55:24.482Z,7.97
2019-03-24T20:00:18.628Z,8.73
2019-03-24T20:05:12.662Z,9.70
2019-03-24T20:10:06.939Z,12.93
2019-03-24T20:15:01.186Z,10.63
2019-03-24T20:19:55.325Z,11.30
2019-03-24T20:24:49.456Z,8.40
2019-03-24T20:29:43.623Z,12.67
2019-03-24T20:34:37.786Z,10.53
2019-03-24T20:39:31.830Z,8.33
2019-03-24T20:44:25.924Z,12.97
2019-03-24T20:49:20.042Z,13.90
2019-03-24T20:54:14.036Z,11.30
2019-03-24T20:59:08.122Z,9.90
2019-03-24T21:04:02.231Z,15.27
2019-03-24T21:08:56.223Z,12.03
2019-03-24T21:13:50.249Z,10.97
2019-03-24T21:18:44.265Z,16.40
2019-03-24T21:23:38.265Z,13.80
2019-03-24T21:28:32.244Z,11.37
2019-03-24T21:33:26.337Z,14.57
2019-03-24T21:38:20.435Z,13.50
2019-03-24T21:43:14.522Z,18.57
2019-03-24T21:48:08.529Z,13.50
2019-03-24T21:53:02.945Z,9.07
2019-03-24T21:57:57.987Z,15.37
2019-03-24T22:02:52.208Z,11.53
2019-03-24T22:07:46.206Z,12.57
2019-03-24T22:12:40.193Z,12.43
2019-03-24T22:17:34.180Z,12.90
2019-03-24T22:22:28.425Z,10.67
2019-03-24T22:27:22.405Z,17.00
2019-03-24T22:32:16.377Z,15.20
2019-03-24T22:37:15.787Z,12.47
2019-03-24T22:42:06.258Z,10.30
2019-03-24T22:47:00.256Z,13.13
2019-03-24T22:51:58.709Z,15.53
2019-03-24T22:56:50.167Z,9.33
2019-03-24T23:01:44.500Z,14.73
2019-03-24T23:06:38.597Z,18.67
2019-03-24T23:11:32.675Z,14.50
2019-03-24T23:16:26.659Z,18.43
2019-03-24T23:21:20.647Z,11.57
2019-03-24T23:26:14.731Z,10.17
2019-03-24T23:31:08.735Z,14.90
2019-03-24T23:36:02.803Z,14.13
2019-03-24T23:40:56.780Z,12.83
2019-03-24T23:45:50.744Z,16.27
2019-03-24T23:50:44.848Z,13.27
2019-03-24T23:55:38.828Z,13.03
